sensor_id;sensor_type;location;lat;lon;timestamp;P1;durP1;ratioP1;P2;durP2;ratioP2
28009;SDS011;15334;49.494;8.410;2023-07-29T00:00:24;13.85;;;4.53;;
28009;SDS011;15334;49.494;8.410;2023-07-29T00:02:54;8.30;;;3.92;;
28009;SDS011;15334;49.494;8.410;2023-07-29T00:05:22;6.82;;;3.63;;
28009;SDS011;15334;49.494;8.410;2023-07-29T00:07:51;7.18;;;3.63;;
28009;SDS011;15334;49.494;8.410;2023-07-29T00:10:20;10.85;;;3.97;;
28009;SDS011;15334;49.494;8.410;2023-07-29T00:12:48;6.75;;;3.38;;
28009;SDS011;15334;49.494;8.410;2023-07-29T00:15:16;6.45;;;3.05;;
28009;SDS011;15334;49.494;8.410;2023-07-29T00:17:44;7.28;;;3.15;;
28009;SDS011;15334;49.494;8.410;2023-07-29T00:20:12;5.85;;;3.05;;
28009;SDS011;15334;49.494;8.410;2023-07-29T00:22:40;7.20;;;3.55;;
28009;SDS011;15334;49.494;8.410;2023-07-29T00:25:09;6.63;;;3.40;;
28009;SDS011;15334;49.494;8.410;2023-07-29T00:27:37;6.80;;;3.00;;
28009;SDS011;15334;49.494;8.410;2023-07-29T00:30:06;6.07;;;3.17;;
28009;SDS011;15334;49.494;8.410;2023-07-29T00:32:35;10.98;;;3.72;;
28009;SDS011;15334;49.494;8.410;2023-07-29T00:35:03;6.55;;;3.53;;
28009;SDS011;15334;49.494;8.410;2023-07-29T00:37:32;10.05;;;5.38;;
28009;SDS011;15334;49.494;8.410;2023-07-29T00:40:00;11.05;;;5.10;;
28009;SDS011;15334;49.494;8.410;2023-07-29T00:42:30;10.32;;;5.78;;
28009;SDS011;15334;49.494;8.410;2023-07-29T00:44:58;17.17;;;7.45;;
28009;SDS011;15334;49.494;8.410;2023-07-29T00:47:26;17.20;;;7.65;;
28009;SDS011;15334;49.494;8.410;2023-07-29T00:49:54;16.88;;;6.95;;
28009;SDS011;15334;49.494;8.410;2023-07-29T00:52:22;18.83;;;9.40;;
28009;SDS011;15334;49.494;8.410;2023-07-29T00:54:50;39.58;;;15.35;;
28009;SDS011;15334;49.494;8.410;2023-07-29T00:57:19;24.92;;;13.30;;
28009;SDS011;15334;49.494;8.410;2023-07-29T00:59:49;31.20;;;13.00;;
28009;SDS011;15334;49.494;8.410;2023-07-29T01:02:17;30.85;;;14.75;;
28009;SDS011;15334;49.494;8.410;2023-07-29T01:10:58;14.43;;;6.45;;
28009;SDS011;15334;49.494;8.410;2023-07-29T01:13:34;14.45;;;5.65;;
28009;SDS011;15334;49.494;8.410;2023-07-29T01:16:12;9.48;;;4.50;;
28009;SDS011;15334;49.494;8.410;2023-07-29T01:18:43;17.77;;;7.47;;
28009;SDS011;15334;49.494;8.410;2023-07-29T01:21:16;5.83;;;2.87;;
28009;SDS011;15334;49.494;8.410;2023-07-29T01:23:46;9.98;;;2.95;;
28009;SDS011;15334;49.494;8.410;2023-07-29T01:26:14;5.97;;;2.45;;
28009;SDS011;15334;49.494;8.410;2023-07-29T01:28:42;7.20;;;2.75;;
28009;SDS011;15334;49.494;8.410;2023-07-29T01:31:12;5.97;;;2.47;;
28009;SDS011;15334;49.494;8.410;2023-07-29T01:33:46;6.32;;;2.58;;
28009;SDS011;15334;49.494;8.410;2023-07-29T01:36:21;4.20;;;2.30;;
28009;SDS011;15334;49.494;8.410;2023-07-29T01:38:54;8.15;;;2.33;;
28009;SDS011;15334;49.494;8.410;2023-07-29T01:41:23;5.07;;;2.13;;
28009;SDS011;15334;49.494;8.410;2023-07-29T01:43:52;8.30;;;2.53;;
28009;SDS011;15334;49.494;8.410;2023-07-29T01:46:20;4.57;;;2.75;;
28009;SDS011;15334;49.494;8.410;2023-07-29T01:48:48;9.70;;;3.58;;
28009;SDS011;15334;49.494;8.410;2023-07-29T01:51:16;10.63;;;4.38;;
28009;SDS011;15334;49.494;8.410;2023-07-29T01:53:46;17.17;;;7.45;;
28009;SDS011;15334;49.494;8.410;2023-07-29T01:56:16;18.38;;;9.25;;
28009;SDS011;15334;49.494;8.410;2023-07-29T01:58:44;27.65;;;11.90;;
28009;SDS011;15334;49.494;8.410;2023-07-29T02:01:12;30.95;;;11.35;;
28009;SDS011;15334;49.494;8.410;2023-07-29T02:03:40;29.27;;;11.75;;
28009;SDS011;15334;49.494;8.410;2023-07-29T02:06:08;22.83;;;10.60;;
28009;SDS011;15334;49.494;8.410;2023-07-29T02:08:36;24.70;;;10.48;;
28009;SDS011;15334;49.494;8.410;2023-07-29T02:11:07;20.77;;;9.52;;
28009;SDS011;15334;49.494;8.410;2023-07-29T02:13:36;16.20;;;7.03;;
28009;SDS011;15334;49.494;8.410;2023-07-29T02:16:04;26.15;;;10.85;;
28009;SDS011;15334;49.494;8.410;2023-07-29T02:18:32;22.15;;;8.80;;
28009;SDS011;15334;49.494;8.410;2023-07-29T02:21:00;16.08;;;6.65;;
28009;SDS011;15334;49.494;8.410;2023-07-29T02:23:28;17.85;;;6.57;;
28009;SDS011;15334;49.494;8.410;2023-07-29T02:25:56;19.33;;;6.93;;
28009;SDS011;15334;49.494;8.410;2023-07-29T02:28:24;16.77;;;5.22;;
28009;SDS011;15334;49.494;8.410;2023-07-29T02:33:42;6.43;;;3.55;;
28009;SDS011;15334;49.494;8.410;2023-07-29T02:36:11;9.95;;;4.13;;
28009;SDS011;15334;49.494;8.410;2023-07-29T02:38:40;5.90;;;2.92;;
28009;SDS011;15334;49.494;8.410;2023-07-29T02:41:08;6.05;;;2.85;;
28009;SDS011;15334;49.494;8.410;2023-07-29T02:43:38;7.65;;;3.10;;
28009;SDS011;15334;49.494;8.410;2023-07-29T02:46:07;4.18;;;2.35;;
28009;SDS011;15334;49.494;8.410;2023-07-29T02:48:37;6.90;;;3.05;;
28009;SDS011;15334;49.494;8.410;2023-07-29T02:51:05;4.55;;;2.42;;
28009;SDS011;15334;49.494;8.410;2023-07-29T02:53:33;14.23;;;3.28;;
28009;SDS011;15334;49.494;8.410;2023-07-29T02:56:03;5.82;;;2.50;;
28009;SDS011;15334;49.494;8.410;2023-07-29T02:58:32;3.97;;;2.22;;
28009;SDS011;15334;49.494;8.410;2023-07-29T03:01:01;5.22;;;2.47;;
28009;SDS011;15334;49.494;8.410;2023-07-29T03:03:30;5.88;;;2.85;;
28009;SDS011;15334;49.494;8.410;2023-07-29T03:06:01;4.00;;;2.38;;
28009;SDS011;15334;49.494;8.410;2023-07-29T03:08:30;6.65;;;2.90;;
28009;SDS011;15334;49.494;8.410;2023-07-29T03:10:58;7.25;;;2.72;;
28009;SDS011;15334;49.494;8.410;2023-07-29T03:13:32;5.40;;;3.00;;
28009;SDS011;15334;49.494;8.410;2023-07-29T03:16:04;6.97;;;3.22;;
28009;SDS011;15334;49.494;8.410;2023-07-29T03:18:32;7.95;;;3.13;;
28009;SDS011;15334;49.494;8.410;2023-07-29T03:21:02;8.07;;;2.90;;
28009;SDS011;15334;49.494;8.410;2023-07-29T03:23:32;6.13;;;3.25;;
28009;SDS011;15334;49.494;8.410;2023-07-29T03:26:02;6.18;;;3.05;;
28009;SDS011;15334;49.494;8.410;2023-07-29T03:28:36;9.85;;;3.30;;
28009;SDS011;15334;49.494;8.410;2023-07-29T03:31:05;5.65;;;2.95;;
28009;SDS011;15334;49.494;8.410;2023-07-29T03:33:33;5.18;;;2.75;;
28009;SDS011;15334;49.494;8.410;2023-07-29T03:36:03;8.00;;;3.40;;
28009;SDS011;15334;49.494;8.410;2023-07-29T03:38:31;8.23;;;3.00;;
28009;SDS011;15334;49.494;8.410;2023-07-29T03:41:01;6.32;;;3.30;;
28009;SDS011;15334;49.494;8.410;2023-07-29T03:43:29;6.28;;;3.38;;
28009;SDS011;15334;49.494;8.410;2023-07-29T03:45:57;7.43;;;4.07;;
28009;SDS011;15334;49.494;8.410;2023-07-29T03:48:26;10.82;;;3.53;;
28009;SDS011;15334;49.494;8.410;2023-07-29T03:50:54;9.77;;;3.80;;
28009;SDS011;15334;49.494;8.410;2023-07-29T03:53:23;6.75;;;3.45;;
28009;SDS011;15334;49.494;8.410;2023-07-29T03:55:51;7.90;;;3.90;;
28009;SDS011;15334;49.494;8.410;2023-07-29T03:58:21;7.30;;;2.95;;
28009;SDS011;15334;49.494;8.410;2023-07-29T04:00:49;6.15;;;3.03;;
28009;SDS011;15334;49.494;8.410;2023-07-29T04:03:17;7.15;;;3.83;;
28009;SDS011;15334;49.494;8.410;2023-07-29T04:05:46;8.88;;;3.72;;
28009;SDS011;15334;49.494;8.410;2023-07-29T04:08:14;8.77;;;3.83;;
28009;SDS011;15334;49.494;8.410;2023-07-29T04:10:43;12.70;;;3.50;;
28009;SDS011;15334;49.494;8.410;2023-07-29T04:13:11;6.47;;;3.33;;
28009;SDS011;15334;49.494;8.410;2023-07-29T04:15:39;11.95;;;3.65;;
28009;SDS011;15334;49.494;8.410;2023-07-29T04:18:07;7.35;;;3.60;;
28009;SDS011;15334;49.494;8.410;2023-07-29T04:20:35;7.55;;;3.30;;
28009;SDS011;15334;49.494;8.410;2023-07-29T04:23:03;7.72;;;3.63;;
28009;SDS011;15334;49.494;8.410;2023-07-29T04:25:31;8.13;;;3.70;;
28009;SDS011;15334;49.494;8.410;2023-07-29T04:28:01;6.60;;;3.17;;
28009;SDS011;15334;49.494;8.410;2023-07-29T04:30:31;7.77;;;3.27;;
28009;SDS011;15334;49.494;8.410;2023-07-29T04:32:59;8.10;;;3.63;;
28009;SDS011;15334;49.494;8.410;2023-07-29T04:35:27;8.43;;;3.78;;
28009;SDS011;15334;49.494;8.410;2023-07-29T04:37:55;6.40;;;3.55;;
28009;SDS011;15334;49.494;8.410;2023-07-29T04:40:23;6.93;;;3.65;;
28009;SDS011;15334;49.494;8.410;2023-07-29T04:43:10;5.88;;;3.45;;
28009;SDS011;15334;49.494;8.410;2023-07-29T04:45:56;8.27;;;3.17;;
28009;SDS011;15334;49.494;8.410;2023-07-29T04:48:41;8.02;;;4.40;;
28009;SDS011;15334;49.494;8.410;2023-07-29T04:51:27;8.15;;;3.42;;
28009;SDS011;15334;49.494;8.410;2023-07-29T04:53:55;10.82;;;3.70;;
28009;SDS011;15334;49.494;8.410;2023-07-29T04:56:23;6.78;;;3.45;;
28009;SDS011;15334;49.494;8.410;2023-07-29T04:58:52;7.85;;;3.30;;
28009;SDS011;15334;49.494;8.410;2023-07-29T05:01:21;7.15;;;3.78;;
28009;SDS011;15334;49.494;8.410;2023-07-29T05:03:49;6.38;;;3.55;;
28009;SDS011;15334;49.494;8.410;2023-07-29T05:06:17;8.38;;;3.92;;
28009;SDS011;15334;49.494;8.410;2023-07-29T05:08:45;8.98;;;4.30;;
28009;SDS011;15334;49.494;8.410;2023-07-29T05:11:13;7.88;;;3.20;;
28009;SDS011;15334;49.494;8.410;2023-07-29T05:13:41;8.15;;;4.15;;
28009;SDS011;15334;49.494;8.410;2023-07-29T05:16:11;8.77;;;4.10;;
28009;SDS011;15334;49.494;8.410;2023-07-29T05:18:39;11.43;;;3.88;;
28009;SDS011;15334;49.494;8.410;2023-07-29T05:21:07;10.65;;;4.25;;
28009;SDS011;15334;49.494;8.410;2023-07-29T05:23:37;11.95;;;5.05;;
28009;SDS011;15334;49.494;8.410;2023-07-29T05:26:05;7.57;;;4.47;;
28009;SDS011;15334;49.494;8.410;2023-07-29T05:28:33;9.02;;;4.93;;
28009;SDS011;15334;49.494;8.410;2023-07-29T05:31:01;8.43;;;4.20;;
28009;SDS011;15334;49.494;8.410;2023-07-29T05:33:31;8.95;;;4.22;;
28009;SDS011;15334;49.494;8.410;2023-07-29T05:35:59;9.13;;;4.38;;
28009;SDS011;15334;49.494;8.410;2023-07-29T05:38:27;8.10;;;4.07;;
28009;SDS011;15334;49.494;8.410;2023-07-29T05:40:55;8.50;;;3.85;;
28009;SDS011;15334;49.494;8.410;2023-07-29T05:43:23;8.30;;;3.72;;
28009;SDS011;15334;49.494;8.410;2023-07-29T05:45:52;6.10;;;3.35;;
28009;SDS011;15334;49.494;8.410;2023-07-29T05:48:20;6.65;;;3.20;;
28009;SDS011;15334;49.494;8.410;2023-07-29T05:50:49;7.35;;;2.90;;
28009;SDS011;15334;49.494;8.410;2023-07-29T05:53:17;6.78;;;2.80;;
28009;SDS011;15334;49.494;8.410;2023-07-29T05:55:45;10.60;;;3.28;;
28009;SDS011;15334;49.494;8.410;2023-07-29T05:58:13;4.90;;;2.60;;
28009;SDS011;15334;49.494;8.410;2023-07-29T06:00:41;5.55;;;2.75;;
28009;SDS011;15334;49.494;8.410;2023-07-29T06:03:09;4.22;;;2.60;;
28009;SDS011;15334;49.494;8.410;2023-07-29T06:05:38;4.65;;;2.33;;
28009;SDS011;15334;49.494;8.410;2023-07-29T06:08:08;6.15;;;2.88;;
28009;SDS011;15334;49.494;8.410;2023-07-29T06:10:37;4.30;;;2.00;;
28009;SDS011;15334;49.494;8.410;2023-07-29T06:13:05;5.03;;;2.65;;
28009;SDS011;15334;49.494;8.410;2023-07-29T06:15:33;5.03;;;2.70;;
28009;SDS011;15334;49.494;8.410;2023-07-29T06:18:01;7.05;;;2.80;;
28009;SDS011;15334;49.494;8.410;2023-07-29T06:20:29;5.80;;;2.58;;
28009;SDS011;15334;49.494;8.410;2023-07-29T06:22:57;4.60;;;2.30;;
28009;SDS011;15334;49.494;8.410;2023-07-29T06:25:27;6.30;;;2.20;;
28009;SDS011;15334;49.494;8.410;2023-07-29T06:27:55;6.28;;;2.08;;
28009;SDS011;15334;49.494;8.410;2023-07-29T06:30:24;4.10;;;2.47;;
28009;SDS011;15334;49.494;8.410;2023-07-29T06:32:52;5.65;;;2.30;;
28009;SDS011;15334;49.494;8.410;2023-07-29T06:35:21;4.00;;;2.40;;
28009;SDS011;15334;49.494;8.410;2023-07-29T06:37:49;5.22;;;2.38;;
28009;SDS011;15334;49.494;8.410;2023-07-29T06:40:17;6.85;;;2.67;;
28009;SDS011;15334;49.494;8.410;2023-07-29T06:42:47;4.97;;;2.75;;
28009;SDS011;15334;49.494;8.410;2023-07-29T06:45:15;4.75;;;2.95;;
28009;SDS011;15334;49.494;8.410;2023-07-29T06:47:44;6.72;;;2.78;;
28009;SDS011;15334;49.494;8.410;2023-07-29T06:50:15;5.88;;;3.00;;
28009;SDS011;15334;49.494;8.410;2023-07-29T06:52:43;7.13;;;3.45;;
28009;SDS011;15334;49.494;8.410;2023-07-29T06:55:12;4.88;;;2.50;;
28009;SDS011;15334;49.494;8.410;2023-07-29T06:57:40;6.40;;;3.28;;
28009;SDS011;15334;49.494;8.410;2023-07-29T07:00:10;6.50;;;3.47;;
28009;SDS011;15334;49.494;8.410;2023-07-29T07:02:38;6.03;;;3.00;;
28009;SDS011;15334;49.494;8.410;2023-07-29T07:05:06;5.05;;;2.60;;
28009;SDS011;15334;49.494;8.410;2023-07-29T07:07:34;4.97;;;2.60;;
28009;SDS011;15334;49.494;8.410;2023-07-29T07:10:02;6.78;;;2.75;;
28009;SDS011;15334;49.494;8.410;2023-07-29T07:12:31;4.88;;;2.55;;
28009;SDS011;15334;49.494;8.410;2023-07-29T07:14:59;5.10;;;2.35;;
28009;SDS011;15334;49.494;8.410;2023-07-29T07:17:29;4.63;;;2.28;;
28009;SDS011;15334;49.494;8.410;2023-07-29T07:19:57;4.63;;;2.45;;
28009;SDS011;15334;49.494;8.410;2023-07-29T07:22:25;3.65;;;2.10;;
28009;SDS011;15334;49.494;8.410;2023-07-29T07:24:53;8.45;;;2.30;;
28009;SDS011;15334;49.494;8.410;2023-07-29T07:27:21;3.97;;;2.28;;
28009;SDS011;15334;49.494;8.410;2023-07-29T07:29:49;3.50;;;1.77;;
28009;SDS011;15334;49.494;8.410;2023-07-29T07:32:17;5.53;;;2.40;;
28009;SDS011;15334;49.494;8.410;2023-07-29T07:34:47;4.68;;;2.67;;
28009;SDS011;15334;49.494;8.410;2023-07-29T07:37:15;5.68;;;1.88;;
28009;SDS011;15334;49.494;8.410;2023-07-29T07:39:43;2.88;;;1.92;;
28009;SDS011;15334;49.494;8.410;2023-07-29T07:42:11;6.38;;;2.63;;
28009;SDS011;15334;49.494;8.410;2023-07-29T07:44:39;4.78;;;2.00;;
28009;SDS011;15334;49.494;8.410;2023-07-29T07:47:07;5.65;;;2.33;;
28009;SDS011;15334;49.494;8.410;2023-07-29T07:49:35;4.20;;;2.15;;
28009;SDS011;15334;49.494;8.410;2023-07-29T07:52:05;4.18;;;2.30;;
28009;SDS011;15334;49.494;8.410;2023-07-29T07:54:33;7.70;;;2.30;;
28009;SDS011;15334;49.494;8.410;2023-07-29T07:57:01;10.35;;;2.97;;
28009;SDS011;15334;49.494;8.410;2023-07-29T07:59:29;6.45;;;2.58;;
28009;SDS011;15334;49.494;8.410;2023-07-29T08:01:57;4.60;;;2.45;;
28009;SDS011;15334;49.494;8.410;2023-07-29T08:04:25;7.43;;;3.05;;
28009;SDS011;15334;49.494;8.410;2023-07-29T08:06:54;7.72;;;2.35;;
28009;SDS011;15334;49.494;8.410;2023-07-29T08:09:23;8.32;;;2.50;;
28009;SDS011;15334;49.494;8.410;2023-07-29T08:11:51;4.13;;;1.90;;
28009;SDS011;15334;49.494;8.410;2023-07-29T08:14:19;4.30;;;2.22;;
28009;SDS011;15334;49.494;8.410;2023-07-29T08:16:47;3.72;;;1.80;;
28009;SDS011;15334;49.494;8.410;2023-07-29T08:19:18;3.97;;;2.00;;
28009;SDS011;15334;49.494;8.410;2023-07-29T08:21:48;4.82;;;2.17;;
28009;SDS011;15334;49.494;8.410;2023-07-29T08:24:16;3.75;;;1.73;;
28009;SDS011;15334;49.494;8.410;2023-07-29T08:26:45;3.42;;;1.80;;
28009;SDS011;15334;49.494;8.410;2023-07-29T08:29:13;6.07;;;1.88;;
28009;SDS011;15334;49.494;8.410;2023-07-29T08:31:41;3.47;;;1.80;;
28009;SDS011;15334;49.494;8.410;2023-07-29T08:34:09;5.43;;;2.13;;
28009;SDS011;15334;49.494;8.410;2023-07-29T08:36:37;171.70;;;14.90;;
28009;SDS011;15334;49.494;8.410;2023-07-29T08:39:05;30.17;;;3.25;;
28009;SDS011;15334;49.494;8.410;2023-07-29T08:41:35;3.90;;;2.17;;
28009;SDS011;15334;49.494;8.410;2023-07-29T08:44:11;5.43;;;2.80;;
28009;SDS011;15334;49.494;8.410;2023-07-29T08:46:45;2.85;;;1.77;;
28009;SDS011;15334;49.494;8.410;2023-07-29T08:49:13;4.45;;;1.77;;
28009;SDS011;15334;49.494;8.410;2023-07-29T08:51:45;5.25;;;1.60;;
28009;SDS011;15334;49.494;8.410;2023-07-29T08:54:14;2.78;;;1.35;;
28009;SDS011;15334;49.494;8.410;2023-07-29T08:56:43;2.85;;;1.70;;
28009;SDS011;15334;49.494;8.410;2023-07-29T08:59:13;3.03;;;1.40;;
28009;SDS011;15334;49.494;8.410;2023-07-29T09:01:42;2.67;;;1.40;;
28009;SDS011;15334;49.494;8.410;2023-07-29T09:04:11;2.20;;;1.05;;
28009;SDS011;15334;49.494;8.410;2023-07-29T09:06:40;2.10;;;1.15;;
28009;SDS011;15334;49.494;8.410;2023-07-29T09:09:11;2.42;;;1.67;;
28009;SDS011;15334;49.494;8.410;2023-07-29T09:11:40;3.60;;;1.33;;
28009;SDS011;15334;49.494;8.410;2023-07-29T09:14:08;3.05;;;1.60;;
28009;SDS011;15334;49.494;8.410;2023-07-29T09:16:38;2.72;;;1.45;;
28009;SDS011;15334;49.494;8.410;2023-07-29T09:19:07;3.33;;;1.90;;
28009;SDS011;15334;49.494;8.410;2023-07-29T09:21:38;3.45;;;1.77;;
28009;SDS011;15334;49.494;8.410;2023-07-29T09:24:06;2.35;;;1.48;;
28009;SDS011;15334;49.494;8.410;2023-07-29T09:26:35;3.42;;;1.70;;
28009;SDS011;15334;49.494;8.410;2023-07-29T09:29:03;5.03;;;2.00;;
28009;SDS011;15334;49.494;8.410;2023-07-29T09:31:31;2.35;;;1.65;;
28009;SDS011;15334;49.494;8.410;2023-07-29T09:34:01;4.85;;;1.95;;
28009;SDS011;15334;49.494;8.410;2023-07-29T09:36:32;4.80;;;2.08;;
28009;SDS011;15334;49.494;8.410;2023-07-29T09:39:02;4.70;;;2.08;;
28009;SDS011;15334;49.494;8.410;2023-07-29T09:41:30;3.22;;;1.75;;
28009;SDS011;15334;49.494;8.410;2023-07-29T09:43:59;4.38;;;1.80;;
28009;SDS011;15334;49.494;8.410;2023-07-29T09:46:31;3.42;;;2.03;;
28009;SDS011;15334;49.494;8.410;2023-07-29T09:49:04;6.43;;;1.98;;
28009;SDS011;15334;49.494;8.410;2023-07-29T09:51:36;4.20;;;2.47;;
28009;SDS011;15334;49.494;8.410;2023-07-29T09:54:06;4.25;;;1.77;;
28009;SDS011;15334;49.494;8.410;2023-07-29T09:56:38;3.45;;;1.80;;
28009;SDS011;15334;49.494;8.410;2023-07-29T09:59:08;3.92;;;2.20;;
28009;SDS011;15334;49.494;8.410;2023-07-29T10:01:37;5.70;;;2.00;;
28009;SDS011;15334;49.494;8.410;2023-07-29T10:04:07;2.80;;;1.60;;
28009;SDS011;15334;49.494;8.410;2023-07-29T10:06:39;4.63;;;1.77;;
28009;SDS011;15334;49.494;8.410;2023-07-29T10:09:08;3.08;;;1.85;;
28009;SDS011;15334;49.494;8.410;2023-07-29T10:11:38;2.97;;;1.50;;
28009;SDS011;15334;49.494;8.410;2023-07-29T10:14:09;3.20;;;2.03;;
28009;SDS011;15334;49.494;8.410;2023-07-29T10:16:37;4.18;;;1.77;;
28009;SDS011;15334;49.494;8.410;2023-07-29T10:19:08;3.25;;;1.80;;
28009;SDS011;15334;49.494;8.410;2023-07-29T10:21:39;5.57;;;1.70;;
28009;SDS011;15334;49.494;8.410;2023-07-29T10:24:11;9.77;;;2.15;;
28009;SDS011;15334;49.494;8.410;2023-07-29T10:26:46;3.38;;;1.70;;
28009;SDS011;15334;49.494;8.410;2023-07-29T10:29:17;2.88;;;1.50;;
28009;SDS011;15334;49.494;8.410;2023-07-29T10:31:47;2.70;;;1.67;;
28009;SDS011;15334;49.494;8.410;2023-07-29T10:34:21;2.60;;;1.45;;
28009;SDS011;15334;49.494;8.410;2023-07-29T10:36:49;2.95;;;1.30;;
28009;SDS011;15334;49.494;8.410;2023-07-29T10:39:18;2.25;;;1.42;;
28009;SDS011;15334;49.494;8.410;2023-07-29T10:41:56;3.97;;;1.80;;
28009;SDS011;15334;49.494;8.410;2023-07-29T10:47:20;2.92;;;1.55;;
28009;SDS011;15334;49.494;8.410;2023-07-29T10:49:51;4.15;;;1.40;;
28009;SDS011;15334;49.494;8.410;2023-07-29T10:52:28;2.03;;;1.20;;
28009;SDS011;15334;49.494;8.410;2023-07-29T10:57:51;5.75;;;1.35;;
28009;SDS011;15334;49.494;8.410;2023-07-29T11:00:19;2.70;;;1.30;;
28009;SDS011;15334;49.494;8.410;2023-07-29T11:02:56;3.60;;;1.50;;
28009;SDS011;15334;49.494;8.410;2023-07-29T11:05:41;2.17;;;1.13;;
28009;SDS011;15334;49.494;8.410;2023-07-29T11:08:20;4.95;;;1.58;;
28009;SDS011;15334;49.494;8.410;2023-07-29T11:13:41;2.83;;;1.33;;
28009;SDS011;15334;49.494;8.410;2023-07-29T11:16:11;2.58;;;1.40;;
28009;SDS011;15334;49.494;8.410;2023-07-29T11:18:44;1.95;;;1.23;;
28009;SDS011;15334;49.494;8.410;2023-07-29T11:21:16;3.17;;;1.38;;
28009;SDS011;15334;49.494;8.410;2023-07-29T11:23:45;4.30;;;1.58;;
28009;SDS011;15334;49.494;8.410;2023-07-29T11:26:13;2.72;;;1.45;;
28009;SDS011;15334;49.494;8.410;2023-07-29T11:28:41;2.60;;;1.33;;
28009;SDS011;15334;49.494;8.410;2023-07-29T11:31:09;2.42;;;1.30;;
28009;SDS011;15334;49.494;8.410;2023-07-29T11:33:38;2.65;;;1.23;;
28009;SDS011;15334;49.494;8.410;2023-07-29T11:36:12;3.85;;;1.20;;
28009;SDS011;15334;49.494;8.410;2023-07-29T11:38:46;2.38;;;1.08;;
28009;SDS011;15334;49.494;8.410;2023-07-29T11:41:18;3.70;;;1.52;;
28009;SDS011;15334;49.494;8.410;2023-07-29T11:43:48;5.65;;;1.95;;
28009;SDS011;15334;49.494;8.410;2023-07-29T11:46:20;5.25;;;1.55;;
28009;SDS011;15334;49.494;8.410;2023-07-29T11:48:49;3.15;;;1.20;;
28009;SDS011;15334;49.494;8.410;2023-07-29T11:51:18;2.97;;;1.35;;
28009;SDS011;15334;49.494;8.410;2023-07-29T11:53:46;3.50;;;1.33;;
28009;SDS011;15334;49.494;8.410;2023-07-29T11:56:14;2.55;;;1.52;;
28009;SDS011;15334;49.494;8.410;2023-07-29T11:58:44;3.45;;;1.30;;
28009;SDS011;15334;49.494;8.410;2023-07-29T12:01:12;1.65;;;1.08;;
28009;SDS011;15334;49.494;8.410;2023-07-29T12:03:40;3.15;;;1.70;;
28009;SDS011;15334;49.494;8.410;2023-07-29T12:06:10;2.45;;;1.05;;
28009;SDS011;15334;49.494;8.410;2023-07-29T12:08:40;6.68;;;1.30;;
28009;SDS011;15334;49.494;8.410;2023-07-29T12:11:09;2.00;;;0.90;;
28009;SDS011;15334;49.494;8.410;2023-07-29T12:13:37;1.23;;;0.98;;
28009;SDS011;15334;49.494;8.410;2023-07-29T12:16:05;6.32;;;1.27;;
28009;SDS011;15334;49.494;8.410;2023-07-29T12:18:33;2.22;;;1.20;;
28009;SDS011;15334;49.494;8.410;2023-07-29T12:21:01;2.78;;;1.10;;
28009;SDS011;15334;49.494;8.410;2023-07-29T12:23:30;2.08;;;1.17;;
28009;SDS011;15334;49.494;8.410;2023-07-29T12:25:59;2.25;;;1.08;;
28009;SDS011;15334;49.494;8.410;2023-07-29T12:28:28;2.30;;;1.40;;
28009;SDS011;15334;49.494;8.410;2023-07-29T12:30:57;3.38;;;1.23;;
28009;SDS011;15334;49.494;8.410;2023-07-29T12:33:29;2.03;;;1.05;;
28009;SDS011;15334;49.494;8.410;2023-07-29T12:35:58;1.90;;;0.90;;
28009;SDS011;15334;49.494;8.410;2023-07-29T12:38:26;3.13;;;1.25;;
28009;SDS011;15334;49.494;8.410;2023-07-29T12:40:54;6.25;;;1.48;;
28009;SDS011;15334;49.494;8.410;2023-07-29T12:43:24;2.63;;;0.90;;
28009;SDS011;15334;49.494;8.410;2023-07-29T12:45:53;4.10;;;0.90;;
28009;SDS011;15334;49.494;8.410;2023-07-29T12:48:21;2.22;;;1.00;;
28009;SDS011;15334;49.494;8.410;2023-07-29T12:50:49;1.73;;;1.02;;
28009;SDS011;15334;49.494;8.410;2023-07-29T12:53:18;2.60;;;1.30;;
28009;SDS011;15334;49.494;8.410;2023-07-29T12:55:46;3.20;;;1.20;;
28009;SDS011;15334;49.494;8.410;2023-07-29T12:58:14;2.55;;;1.10;;
28009;SDS011;15334;49.494;8.410;2023-07-29T13:00:43;2.65;;;0.82;;
28009;SDS011;15334;49.494;8.410;2023-07-29T13:03:11;2.55;;;1.20;;
28009;SDS011;15334;49.494;8.410;2023-07-29T13:05:39;2.78;;;1.27;;
28009;SDS011;15334;49.494;8.410;2023-07-29T13:08:08;3.55;;;1.08;;
28009;SDS011;15334;49.494;8.410;2023-07-29T13:10:36;2.03;;;1.20;;
28009;SDS011;15334;49.494;8.410;2023-07-29T13:13:04;2.42;;;1.20;;
28009;SDS011;15334;49.494;8.410;2023-07-29T13:15:32;2.60;;;1.17;;
28009;SDS011;15334;49.494;8.410;2023-07-29T13:18:02;2.67;;;0.80;;
28009;SDS011;15334;49.494;8.410;2023-07-29T13:20:30;2.58;;;1.10;;
28009;SDS011;15334;49.494;8.410;2023-07-29T13:23:00;3.03;;;1.17;;
28009;SDS011;15334;49.494;8.410;2023-07-29T13:25:28;4.55;;;1.05;;
28009;SDS011;15334;49.494;8.410;2023-07-29T13:27:56;3.15;;;1.63;;
28009;SDS011;15334;49.494;8.410;2023-07-29T13:30:24;2.28;;;1.05;;
28009;SDS011;15334;49.494;8.410;2023-07-29T13:32:52;2.50;;;1.20;;
28009;SDS011;15334;49.494;8.410;2023-07-29T13:35:21;1.77;;;1.08;;
28009;SDS011;15334;49.494;8.410;2023-07-29T13:37:49;4.60;;;1.00;;
28009;SDS011;15334;49.494;8.410;2023-07-29T13:40:17;2.15;;;1.00;;
28009;SDS011;15334;49.494;8.410;2023-07-29T13:42:45;2.20;;;0.98;;
28009;SDS011;15334;49.494;8.410;2023-07-29T13:45:14;3.22;;;1.00;;
28009;SDS011;15334;49.494;8.410;2023-07-29T13:47:41;1.60;;;1.00;;
28009;SDS011;15334;49.494;8.410;2023-07-29T13:50:10;2.17;;;1.08;;
28009;SDS011;15334;49.494;8.410;2023-07-29T13:52:39;3.90;;;1.17;;
28009;SDS011;15334;49.494;8.410;2023-07-29T13:55:07;4.20;;;0.98;;
28009;SDS011;15334;49.494;8.410;2023-07-29T13:57:36;2.47;;;1.15;;
28009;SDS011;15334;49.494;8.410;2023-07-29T14:00:05;3.13;;;1.20;;
28009;SDS011;15334;49.494;8.410;2023-07-29T14:02:34;2.05;;;1.27;;
28009;SDS011;15334;49.494;8.410;2023-07-29T14:05:02;1.27;;;0.98;;
28009;SDS011;15334;49.494;8.410;2023-07-29T14:07:31;1.92;;;0.90;;
28009;SDS011;15334;49.494;8.410;2023-07-29T14:10:01;2.47;;;1.40;;
28009;SDS011;15334;49.494;8.410;2023-07-29T14:12:29;1.35;;;0.80;;
28009;SDS011;15334;49.494;8.410;2023-07-29T14:14:57;2.33;;;1.23;;
28009;SDS011;15334;49.494;8.410;2023-07-29T14:17:25;1.52;;;1.00;;
28009;SDS011;15334;49.494;8.410;2023-07-29T14:19:53;3.40;;;0.90;;
28009;SDS011;15334;49.494;8.410;2023-07-29T14:22:21;6.40;;;1.63;;
28009;SDS011;15334;49.494;8.410;2023-07-29T14:24:49;19.23;;;2.00;;
28009;SDS011;15334;49.494;8.410;2023-07-29T14:27:18;5.70;;;1.10;;
28009;SDS011;15334;49.494;8.410;2023-07-29T14:29:46;1.90;;;1.23;;
28009;SDS011;15334;49.494;8.410;2023-07-29T14:32:14;3.00;;;1.00;;
28009;SDS011;15334;49.494;8.410;2023-07-29T14:34:42;2.38;;;0.85;;
28009;SDS011;15334;49.494;8.410;2023-07-29T14:37:10;2.33;;;1.20;;
28009;SDS011;15334;49.494;8.410;2023-07-29T14:39:38;4.32;;;1.10;;
28009;SDS011;15334;49.494;8.410;2023-07-29T14:42:06;3.20;;;1.27;;
28009;SDS011;15334;49.494;8.410;2023-07-29T14:44:36;2.65;;;1.17;;
28009;SDS011;15334;49.494;8.410;2023-07-29T14:47:04;1.67;;;1.00;;
28009;SDS011;15334;49.494;8.410;2023-07-29T14:49:33;2.78;;;1.10;;
28009;SDS011;15334;49.494;8.410;2023-07-29T14:52:01;3.95;;;1.40;;
28009;SDS011;15334;49.494;8.410;2023-07-29T14:54:29;2.10;;;1.35;;
28009;SDS011;15334;49.494;8.410;2023-07-29T14:56:58;1.85;;;1.10;;
28009;SDS011;15334;49.494;8.410;2023-07-29T14:59:25;1.90;;;1.00;;
28009;SDS011;15334;49.494;8.410;2023-07-29T15:01:55;2.42;;;1.20;;
28009;SDS011;15334;49.494;8.410;2023-07-29T15:04:23;2.35;;;1.30;;
28009;SDS011;15334;49.494;8.410;2023-07-29T15:06:51;3.00;;;1.40;;
28009;SDS011;15334;49.494;8.410;2023-07-29T15:09:19;2.33;;;1.08;;
28009;SDS011;15334;49.494;8.410;2023-07-29T15:11:47;2.60;;;1.40;;
28009;SDS011;15334;49.494;8.410;2023-07-29T15:14:15;1.85;;;1.15;;